createdAt,value
2023-08-27T00:01:00.207Z,100909.47
2023-08-27T00:03:27.891Z,100902.25
2023-08-27T00:06:07.307Z,100916.25
2023-08-27T00:08:34.833Z,100921.59
2023-08-27T00:11:12.166Z,100908.06
2023-08-27T00:13:52.455Z,100915.13
2023-08-27T00:19:07.388Z,100896.41
2023-08-27T00:27:55.222Z,100869.00
2023-08-27T00:30:26.205Z,100859.56
2023-08-27T00:33:00.539Z,100890.44
2023-08-27T00:35:36.905Z,100875.19
2023-08-27T00:38:14.215Z,100878.00
2023-08-27T00:40:43.145Z,100891.13
2023-08-27T00:43:17.143Z,100872.38
2023-08-27T00:45:57.263Z,100865.19
2023-08-27T00:48:32.271Z,100873.66
2023-08-27T00:51:10.146Z,100879.72
2023-08-27T00:56:52.656Z,100866.72
2023-08-27T00:59:26.206Z,100885.53
2023-08-27T01:01:57.005Z,100859.00
2023-08-27T01:05:02.228Z,100869.63
2023-08-27T01:07:55.242Z,100845.59
2023-08-27T01:11:09.293Z,100842.50
2023-08-27T01:13:52.206Z,100854.22
2023-08-27T01:22:47.249Z,100837.00
2023-08-27T01:25:26.905Z,100837.28
2023-08-27T01:28:12.141Z,100840.25
2023-08-27T01:30:56.518Z,100825.19
2023-08-27T01:33:34.152Z,100839.38
2023-08-27T01:36:02.436Z,100817.53
2023-08-27T01:38:37.314Z,100816.13
2023-08-27T01:41:13.855Z,100821.03
2023-08-27T01:43:48.278Z,100809.22
2023-08-27T01:46:15.924Z,100828.38
2023-08-27T01:48:52.430Z,100821.63
2023-08-27T01:51:20.035Z,100800.03
2023-08-27T01:53:57.293Z,100800.56
2023-08-27T01:56:27.838Z,100794.94
2023-08-27T01:59:05.071Z,100814.50
2023-08-27T02:01:32.870Z,100787.16
2023-08-27T02:04:12.258Z,100803.47
2023-08-27T02:06:39.990Z,100826.56
2023-08-27T02:09:23.098Z,100821.63
2023-08-27T02:12:06.198Z,100805.66
2023-08-27T02:14:44.968Z,100813.81
2023-08-27T02:17:24.648Z,100834.97
2023-08-27T02:19:53.357Z,100804.13
2023-08-27T02:22:28.194Z,100801.91
2023-08-27T02:24:55.692Z,100824.63
2023-08-27T02:27:29.311Z,100797.69
2023-08-27T02:29:59.908Z,100807.59
2023-08-27T02:32:34.282Z,100782.38
2023-08-27T02:35:02.109Z,100781.13
2023-08-27T02:37:39.225Z,100782.81
2023-08-27T02:40:09.956Z,100795.91
2023-08-27T02:42:46.306Z,100788.88
2023-08-27T02:45:23.149Z,100801.84
2023-08-27T02:47:57.397Z,100791.69
2023-08-27T02:50:33.803Z,100808.22
2023-08-27T02:53:08.324Z,100779.34
2023-08-27T02:55:46.800Z,100781.06
2023-08-27T02:58:21.139Z,100765.28
2023-08-27T03:00:57.289Z,100764.84
2023-08-27T03:03:24.908Z,100769.50
2023-08-27T03:05:59.302Z,100748.66
2023-08-27T03:08:26.978Z,100773.75
2023-08-27T03:11:03.263Z,100749.69
2023-08-27T03:13:37.761Z,100757.84
2023-08-27T03:16:21.366Z,100753.34
2023-08-27T03:18:49.026Z,100734.06
2023-08-27T03:21:26.304Z,100738.41
2023-08-27T03:23:53.909Z,100733.34
2023-08-27T03:26:29.294Z,100753.50
2023-08-27T03:28:56.824Z,100725.31
2023-08-27T03:31:33.250Z,100738.41
2023-08-27T03:34:03.085Z,100722.38
2023-08-27T03:36:40.604Z,100726.03
2023-08-27T03:39:13.376Z,100758.28
2023-08-27T03:41:47.380Z,100748.00
2023-08-27T03:44:15.647Z,100766.19
2023-08-27T03:46:43.380Z,100739.41
2023-08-27T03:49:17.292Z,100734.63
2023-08-27T03:51:54.316Z,100753.38
2023-08-27T03:54:22.096Z,100726.75
2023-08-27T03:56:56.283Z,100751.50
2023-08-27T03:59:29.626Z,100742.22
2023-08-27T04:02:05.500Z,100750.81
2023-08-27T04:04:35.864Z,100729.25
2023-08-27T04:07:10.325Z,100741.22
2023-08-27T04:09:48.424Z,100753.50
2023-08-27T04:12:22.616Z,100735.31
2023-08-27T04:17:47.381Z,100727.28
2023-08-27T04:20:28.882Z,100759.69
2023-08-27T04:22:59.896Z,100751.09
2023-08-27T04:25:37.552Z,100759.13
2023-08-27T04:28:05.048Z,100743.47
2023-08-27T04:30:41.281Z,100760.56
2023-08-27T04:33:09.089Z,100783.78
2023-08-27T04:35:48.169Z,100764.75
2023-08-27T04:41:09.305Z,100779.44
2023-08-27T04:43:36.264Z,100779.44
2023-08-27T04:46:10.393Z,100787.03
2023-08-27T04:48:44.177Z,100775.75
2023-08-27T04:51:11.210Z,100790.28
2023-08-27T04:53:47.251Z,100789.31
2023-08-27T04:56:17.510Z,100808.47
2023-08-27T04:58:53.241Z,100786.34
2023-08-27T05:01:20.879Z,100780.72
2023-08-27T05:03:55.429Z,100784.66
2023-08-27T05:06:25.217Z,100771.81
2023-08-27T05:08:59.434Z,100798.56
2023-08-27T05:11:26.936Z,100783.78
2023-08-27T05:14:08.802Z,100770.69
2023-08-27T05:16:43.455Z,100783.34
2023-08-27T05:19:19.401Z,100800.25
2023-08-27T05:21:56.389Z,100802.78
2023-08-27T05:24:23.964Z,100782.66
2023-08-27T05:27:00.524Z,100812.53
2023-08-27T05:29:28.317Z,100787.00
2023-08-27T05:32:06.350Z,100811.97
2023-08-27T05:34:38.217Z,100816.75
2023-08-27T05:37:12.410Z,100789.69
2023-08-27T05:39:40.342Z,100796.00
2023-08-27T05:42:21.297Z,100812.78
2023-08-27T05:44:48.829Z,100823.38
2023-08-27T05:47:25.492Z,100836.75
2023-08-27T05:49:55.934Z,100819.84
2023-08-27T05:53:13.423Z,100844.53
2023-08-27T05:55:41.325Z,100823.66
2023-08-27T05:58:19.558Z,100804.50
2023-08-27T06:00:47.723Z,100803.78
2023-08-27T06:03:27.499Z,100797.47
2023-08-27T06:06:01.177Z,100808.88
2023-08-27T06:08:40.799Z,100832.72
2023-08-27T06:11:22.868Z,100832.00
2023-08-27T06:21:18.706Z,100819.44
2023-08-27T06:24:43.952Z,100809.03
2023-08-27T06:30:57.575Z,100805.03
2023-08-27T06:36:44.496Z,100775.44
2023-08-27T06:45:18.222Z,100759.28
2023-08-27T06:47:45.390Z,100768.03
2023-08-27T06:50:21.819Z,100746.63
2023-08-27T06:52:55.613Z,100754.06
2023-08-27T06:55:23.022Z,100766.72
2023-08-27T06:57:56.545Z,100774.16
2023-08-27T07:00:23.332Z,100774.72
2023-08-27T07:02:57.631Z,100783.63
2023-08-27T07:05:25.383Z,100784.47
2023-08-27T07:08:15.806Z,100787.84
2023-08-27T07:10:42.611Z,100769.66
2023-08-27T07:13:15.991Z,100769.75
2023-08-27T07:15:42.869Z,100771.41
2023-08-27T07:18:16.684Z,100762.25
2023-08-27T07:20:43.594Z,100769.84
2023-08-27T07:23:16.662Z,100761.50
2023-08-27T07:25:50.599Z,100771.09
2023-08-27T07:28:17.635Z,100764.06
2023-08-27T07:30:50.605Z,100771.88
2023-08-27T07:33:18.170Z,100763.16
2023-08-27T07:35:51.673Z,100775.25
2023-08-27T07:38:18.533Z,100788.47
2023-08-27T07:40:51.639Z,100779.94
2023-08-27T07:43:38.624Z,100781.97
2023-08-27T07:46:12.677Z,100781.94
2023-08-27T07:48:45.640Z,100779.91
2023-08-27T07:51:18.713Z,100770.03
2023-08-27T07:53:45.554Z,100782.47
2023-08-27T07:56:18.686Z,100777.63
2023-08-27T07:58:51.674Z,100771.09
2023-08-27T08:01:18.725Z,100769.81
2023-08-27T08:03:52.715Z,100766.97
2023-08-27T08:06:20.050Z,100778.09
2023-08-27T08:08:53.773Z,100779.47
2023-08-27T08:11:20.605Z,100771.28
2023-08-27T08:13:54.691Z,100776.19
2023-08-27T08:16:24.606Z,100774.28
2023-08-27T08:18:58.674Z,100763.66
2023-08-27T08:21:25.668Z,100761.56
2023-08-27T08:23:58.755Z,100761.94
2023-08-27T08:26:25.701Z,100767.41
2023-08-27T08:28:58.713Z,100763.97
2023-08-27T08:31:25.892Z,100750.19
2023-08-27T08:33:59.688Z,100760.97
2023-08-27T08:36:34.047Z,100756.81
2023-08-27T08:39:01.058Z,100761.41
2023-08-27T08:41:35.660Z,100750.34
2023-08-27T08:44:50.724Z,100752.91
2023-08-27T08:47:26.823Z,100746.81
2023-08-27T08:50:08.899Z,100763.13
2023-08-27T08:52:46.871Z,100762.94
2023-08-27T08:55:23.696Z,100770.69
2023-08-27T08:58:10.743Z,100767.50
2023-08-27T09:00:44.744Z,100771.56
2023-08-27T09:03:12.590Z,100768.09
2023-08-27T09:05:41.178Z,100768.13
2023-08-27T09:08:17.723Z,100760.44
2023-08-27T09:10:44.481Z,100776.41
2023-08-27T09:13:18.714Z,100770.00
2023-08-27T09:15:51.813Z,100759.19
2023-08-27T09:18:25.690Z,100767.22
2023-08-27T09:20:52.656Z,100769.84
2023-08-27T09:23:25.756Z,100758.03
2023-08-27T09:25:54.340Z,100765.75
2023-08-27T09:28:28.651Z,100759.34
2023-08-27T09:30:55.510Z,100751.50
2023-08-27T09:33:43.817Z,100751.91
2023-08-27T09:36:11.294Z,100753.59
2023-08-27T09:38:46.734Z,100746.34
2023-08-27T09:41:18.415Z,100747.41
2023-08-27T09:44:01.721Z,100741.03
2023-08-27T09:46:45.693Z,100746.91
2023-08-27T09:49:18.759Z,100745.97
2023-08-27T09:51:45.627Z,100739.53
2023-08-27T09:54:17.693Z,100740.38
2023-08-27T09:56:55.675Z,100739.47
2023-08-27T09:59:28.750Z,100741.94
2023-08-27T10:02:01.766Z,100732.63
2023-08-27T10:04:28.613Z,100739.41
2023-08-27T10:07:01.676Z,100739.06
2023-08-27T10:09:35.906Z,100729.13
2023-08-27T10:12:09.749Z,100733.22
2023-08-27T10:14:41.323Z,100729.03
2023-08-27T10:17:14.758Z,100731.72
2023-08-27T10:19:42.236Z,100728.41
2023-08-27T10:22:15.807Z,100730.34
2023-08-27T10:24:50.758Z,100721.53
2023-08-27T10:27:24.768Z,100713.22
2023-08-27T10:29:53.340Z,100713.34
2023-08-27T10:32:26.726Z,100707.88
2023-08-27T10:34:59.778Z,100710.78
2023-08-27T10:37:35.750Z,100702.72
2023-08-27T10:40:10.238Z,100704.25
2023-08-27T10:42:46.771Z,100698.16
2023-08-27T10:45:28.976Z,100688.97
2023-08-27T10:48:24.071Z,100693.97
2023-08-27T10:51:14.750Z,100685.22
2023-08-27T10:53:57.789Z,100680.00
2023-08-27T10:56:33.226Z,100676.41
2023-08-27T10:59:08.765Z,100683.88
2023-08-27T11:01:43.748Z,100687.72
2023-08-27T11:04:10.595Z,100687.97
2023-08-27T11:06:56.787Z,100680.78
2023-08-27T11:09:27.157Z,100678.53
2023-08-27T11:12:07.762Z,100670.41
2023-08-27T11:14:38.654Z,100670.13
2023-08-27T11:17:13.766Z,100683.38
2023-08-27T11:19:46.773Z,100680.28
2023-08-27T11:22:20.525Z,100659.53
2023-08-27T11:24:55.801Z,100673.38
2023-08-27T11:30:58.853Z,100670.94
2023-08-27T11:33:37.256Z,100666.13
2023-08-27T11:36:11.789Z,100675.84
2023-08-27T11:38:38.634Z,100666.13
2023-08-27T11:41:12.828Z,100654.63
2023-08-27T11:43:39.621Z,100650.25
2023-08-27T11:46:12.789Z,100653.06
2023-08-27T11:48:54.758Z,100661.91
2023-08-27T11:51:21.824Z,100670.19
2023-08-27T11:53:54.856Z,100693.53
2023-08-27T11:56:27.820Z,100708.97
2023-08-27T11:58:56.664Z,100725.66
2023-08-27T12:01:30.773Z,100727.00
2023-08-27T12:04:04.802Z,100731.41
2023-08-27T12:06:32.072Z,100693.53
2023-08-27T12:09:05.786Z,100705.75
2023-08-27T12:11:38.818Z,100729.19
2023-08-27T12:14:05.588Z,100715.91
2023-08-27T12:16:40.869Z,100732.63
2023-08-27T12:19:10.026Z,100736.69
2023-08-27T12:21:53.791Z,100747.63
2023-08-27T12:24:30.908Z,100745.91
2023-08-27T12:27:15.817Z,100731.28
2023-08-27T12:32:41.824Z,100744.22
2023-08-27T12:35:13.179Z,100742.16
2023-08-27T12:37:46.871Z,100738.25
2023-08-27T12:40:19.881Z,100754.56
2023-08-27T12:42:52.815Z,100750.81
2023-08-27T12:45:25.822Z,100766.06
2023-08-27T12:47:52.668Z,100792.50
2023-08-27T12:50:26.990Z,100783.00
2023-08-27T12:52:59.846Z,100778.59
2023-08-27T12:55:26.791Z,100771.19
2023-08-27T12:58:00.040Z,100764.28
2023-08-27T13:00:27.242Z,100745.66
2023-08-27T13:03:00.887Z,100733.13
2023-08-27T13:05:33.874Z,100736.56
2023-08-27T13:08:02.469Z,100726.19
2023-08-27T13:10:35.918Z,100742.59
2023-08-27T13:13:02.965Z,100755.59
2023-08-27T13:15:30.032Z,100745.13
2023-08-27T13:18:04.917Z,100741.63
2023-08-27T13:20:37.833Z,100747.56
2023-08-27T13:23:05.191Z,100752.63
2023-08-27T13:25:38.902Z,100753.06
2023-08-27T13:28:12.853Z,100752.75
2023-08-27T13:30:46.252Z,100756.28
2023-08-27T13:33:19.810Z,100758.69
2023-08-27T13:35:47.188Z,100763.47
2023-08-27T13:38:20.898Z,100774.75
2023-08-27T13:40:47.850Z,100775.56
2023-08-27T13:43:23.928Z,100774.59
2023-08-27T13:45:51.207Z,100774.13
2023-08-27T13:48:24.894Z,100774.66
2023-08-27T13:50:51.766Z,100771.97
2023-08-27T13:53:25.857Z,100763.41
2023-08-27T13:55:53.393Z,100760.72
2023-08-27T13:58:20.638Z,100750.44
2023-08-27T14:00:53.826Z,100734.50
2023-08-27T14:03:26.930Z,100736.72
2023-08-27T14:05:53.860Z,100725.59
2023-08-27T14:08:31.876Z,100735.44
2023-08-27T14:11:05.913Z,100733.28
2023-08-27T14:13:33.114Z,100743.66
2023-08-27T14:16:06.922Z,100727.78
2023-08-27T14:18:33.802Z,100730.97
2023-08-27T14:21:09.781Z,100738.94
2023-08-27T14:23:37.029Z,100733.31
2023-08-27T14:26:10.888Z,100731.91
2023-08-27T14:28:37.708Z,100733.78
2023-08-27T14:31:17.894Z,100733.63
2023-08-27T14:33:44.621Z,100728.16
2023-08-27T14:36:17.929Z,100724.50
2023-08-27T14:38:45.432Z,100737.16
2023-08-27T14:41:12.201Z,100735.78
2023-08-27T14:43:45.874Z,100723.22
2023-08-27T14:46:19.005Z,100735.50
2023-08-27T14:48:52.869Z,100739.25
2023-08-27T14:51:19.982Z,100738.41
2023-08-27T14:53:53.876Z,100745.06
2023-08-27T14:56:20.635Z,100747.47
2023-08-27T14:58:57.861Z,100740.44
2023-08-27T15:01:24.849Z,100743.63
2023-08-27T15:03:57.846Z,100741.75
2023-08-27T15:06:24.636Z,100749.56
2023-08-27T15:08:58.915Z,100739.31
2023-08-27T15:11:31.921Z,100735.84
2023-08-27T15:14:04.908Z,100741.44
2023-08-27T15:16:37.900Z,100733.88
2023-08-27T15:19:04.812Z,100729.03
2023-08-27T15:21:37.949Z,100756.78
2023-08-27T15:24:05.098Z,100750.41
2023-08-27T15:26:38.963Z,100741.84
2023-08-27T15:29:05.919Z,100748.38
2023-08-27T15:31:54.945Z,100749.00
2023-08-27T15:34:27.928Z,100759.44
2023-08-27T15:37:00.933Z,100748.53
2023-08-27T15:39:27.756Z,100738.06
2023-08-27T15:42:02.921Z,100742.09
2023-08-27T15:44:29.789Z,100734.34
2023-08-27T15:47:02.871Z,100736.56
2023-08-27T15:49:36.873Z,100734.75
2023-08-27T15:52:03.856Z,100734.31
2023-08-27T15:54:36.887Z,100734.00
2023-08-27T15:57:03.869Z,100729.09
2023-08-27T15:59:36.973Z,100737.97
2023-08-27T16:02:03.943Z,100729.94
2023-08-27T16:04:37.035Z,100737.28
2023-08-27T16:07:07.468Z,100737.25
2023-08-27T16:09:41.066Z,100733.00
2023-08-27T16:12:07.797Z,100747.56
2023-08-27T16:14:34.645Z,100755.13
2023-08-27T16:17:08.054Z,100758.94
2023-08-27T16:19:35.194Z,100754.75
2023-08-27T16:22:08.980Z,100761.66
2023-08-27T16:24:35.861Z,100762.72
2023-08-27T16:27:09.964Z,100770.28
2023-08-27T16:29:36.696Z,100770.25
2023-08-27T16:32:17.054Z,100762.19
2023-08-27T16:34:44.085Z,100772.66
2023-08-27T16:37:18.938Z,100770.66
2023-08-27T16:39:47.126Z,100777.91
2023-08-27T16:42:21.020Z,100782.44
2023-08-27T16:44:47.876Z,100779.56
2023-08-27T16:47:20.932Z,100784.47
2023-08-27T16:49:53.935Z,100773.53
2023-08-27T16:52:26.985Z,100775.38
2023-08-27T16:54:54.112Z,100767.28
2023-08-27T16:57:20.894Z,100772.69
2023-08-27T16:59:53.923Z,100775.34
2023-08-27T17:02:20.734Z,100777.03
2023-08-27T17:04:53.943Z,100781.28
2023-08-27T17:07:20.679Z,100777.56
2023-08-27T17:09:53.965Z,100774.84
2023-08-27T17:12:20.799Z,100778.56
2023-08-27T17:14:56.962Z,100770.97
2023-08-27T17:17:23.890Z,100791.69
2023-08-27T17:19:57.030Z,100790.34
2023-08-27T17:22:25.790Z,100795.91
2023-08-27T17:25:01.971Z,100802.28
2023-08-27T17:27:28.775Z,100804.47
2023-08-27T17:30:09.044Z,100804.97
2023-08-27T17:32:42.396Z,100801.25
2023-08-27T17:35:15.962Z,100805.75
2023-08-27T17:37:49.969Z,100807.09
2023-08-27T17:40:23.037Z,100800.69
2023-08-27T17:42:56.919Z,100814.63
2023-08-27T17:45:23.761Z,100813.06
2023-08-27T17:48:14.052Z,100819.38
2023-08-27T17:50:41.561Z,100816.16
2023-08-27T17:53:14.972Z,100830.25
2023-08-27T17:59:01.989Z,100830.16
2023-08-27T18:01:35.089Z,100819.28
2023-08-27T18:04:11.131Z,100829.22
2023-08-27T18:06:38.450Z,100832.69
2023-08-27T18:09:07.149Z,100837.63
2023-08-27T18:11:41.046Z,100844.31
2023-08-27T18:14:14.007Z,100845.56
2023-08-27T18:16:40.847Z,100845.19
2023-08-27T18:19:14.046Z,100853.81
2023-08-27T18:21:40.919Z,100850.91
2023-08-27T18:24:15.051Z,100855.22
2023-08-27T18:26:48.009Z,100851.28
2023-08-27T18:29:22.037Z,100862.66
2023-08-27T18:31:55.295Z,100863.25
2023-08-27T18:34:29.027Z,100859.13
2023-08-27T18:37:02.088Z,100870.28
2023-08-27T18:39:29.153Z,100872.34
2023-08-27T18:42:02.154Z,100871.97
2023-08-27T18:44:33.041Z,100870.88
2023-08-27T18:47:06.140Z,100864.13
2023-08-27T18:49:45.130Z,100874.44
2023-08-27T18:52:18.109Z,100875.63
2023-08-27T18:54:48.292Z,100880.44
2023-08-27T18:57:22.141Z,100901.47
2023-08-27T18:59:59.092Z,100896.81
2023-08-27T19:02:32.192Z,100906.84
2023-08-27T19:04:59.238Z,100911.00
2023-08-27T19:07:38.076Z,100891.34
2023-08-27T19:10:20.180Z,100889.53
2023-08-27T19:12:47.729Z,100889.84
2023-08-27T19:15:23.440Z,100881.25
2023-08-27T19:17:57.229Z,100904.56
2023-08-27T19:25:47.088Z,100907.09
2023-08-27T19:28:33.820Z,100921.59
2023-08-27T19:31:46.994Z,100923.72
2023-08-27T19:34:27.121Z,100925.00
2023-08-27T19:39:36.156Z,100904.44
2023-08-27T19:42:34.154Z,100915.56
2023-08-27T19:45:24.052Z,100908.66
2023-08-27T19:47:51.041Z,100914.31
2023-08-27T19:50:28.309Z,100897.69
2023-08-27T19:58:44.223Z,100882.00
2023-08-27T20:01:20.225Z,100893.19
2023-08-27T20:06:29.156Z,100901.06
2023-08-27T20:12:34.168Z,100892.31
2023-08-27T20:21:34.098Z,100918.69
2023-08-27T20:24:19.728Z,100907.09
2023-08-27T20:26:53.079Z,100918.66
2023-08-27T20:29:19.872Z,100924.44
2023-08-27T20:32:18.019Z,100897.78
2023-08-27T20:34:44.966Z,100935.00
2023-08-27T20:37:23.055Z,100934.41
2023-08-27T20:39:50.042Z,100930.03
2023-08-27T20:42:25.060Z,100941.47
2023-08-27T20:44:58.673Z,100929.56
2023-08-27T20:47:32.212Z,100948.63
2023-08-27T20:52:48.253Z,100929.53
2023-08-27T20:57:50.745Z,100921.22
2023-08-27T21:00:42.216Z,100924.88
2023-08-27T21:06:59.186Z,100964.50
2023-08-27T21:09:26.757Z,100951.94
2023-08-27T21:12:08.708Z,100942.75
2023-08-27T21:17:33.061Z,100939.22
2023-08-27T21:32:24.353Z,100963.97
2023-08-27T21:34:51.314Z,100959.56
2023-08-27T21:37:31.818Z,100984.69
2023-08-27T21:40:03.654Z,100977.06
2023-08-27T21:48:50.270Z,100952.84
2023-08-27T21:51:17.795Z,100956.78
2023-08-27T21:53:51.245Z,100957.59
2023-08-27T21:56:21.533Z,100961.41
2023-08-27T21:58:48.434Z,100957.16
2023-08-27T22:01:32.378Z,100983.09
2023-08-27T22:04:21.220Z,100989.25
2023-08-27T22:06:48.178Z,101015.06
2023-08-27T22:09:22.140Z,100982.13
2023-08-27T22:14:45.206Z,101001.06
2023-08-27T22:17:25.265Z,100999.50
2023-08-27T22:19:52.415Z,101006.94
2023-08-27T22:22:26.191Z,100993.56
2023-08-27T22:24:53.848Z,101002.44
2023-08-27T22:27:33.158Z,100985.31
2023-08-27T22:30:05.055Z,101000.44
2023-08-27T22:32:46.202Z,101027.47
2023-08-27T22:35:22.079Z,101022.81
2023-08-27T22:37:55.146Z,101031.19
2023-08-27T22:40:26.131Z,101031.19
2023-08-27T22:45:35.102Z,101036.47
2023-08-27T22:50:58.341Z,101029.59
2023-08-27T22:53:42.163Z,101033.97
2023-08-27T22:56:21.199Z,101045.09
2023-08-27T22:58:54.166Z,101038.66
2023-08-27T23:01:21.116Z,101039.22
2023-08-27T23:03:47.974Z,101036.56
2023-08-27T23:06:28.411Z,101040.78
2023-08-27T23:09:00.482Z,101033.03
2023-08-27T23:11:35.153Z,101027.66
2023-08-27T23:14:01.891Z,101035.13
2023-08-27T23:16:37.215Z,101037.22
2023-08-27T23:19:04.364Z,101036.63
2023-08-27T23:21:38.144Z,101030.69
2023-08-27T23:24:14.675Z,101033.50
2023-08-27T23:26:48.164Z,101028.44
2023-08-27T23:31:57.153Z,101012.75
2023-08-27T23:34:29.241Z,101003.72
2023-08-27T23:37:19.212Z,100997.94
2023-08-27T23:39:46.018Z,101007.94
2023-08-27T23:45:06.378Z,101000.47
2023-08-27T23:47:40.207Z,100979.34
2023-08-27T23:50:10.582Z,100977.63
2023-08-27T23:52:45.223Z,100975.09
2023-08-27T23:55:21.490Z,100970.84
2023-08-27T23:57:48.392Z,100978.16
